sensor_id;sensor_type;location;lat;lon;timestamp;P1;P4;P2;P0;N10;N4;N25;N1;N05;TS
45310;SPS30;68264;51.540;5.854;2023-09-19T00:07:44;1.56;;3.66;2.73;5697.4;;2393.4;2225.7;5693.2;
45310;SPS30;68264;51.540;5.854;2023-09-19T00:21:43;1.08;;3.44;2.73;5649.7;;2351.8;2220.1;5646.4;
45310;SPS30;68264;51.540;5.854;2023-09-19T00:36:11;0.3;;3.01;2.52;5401.8;;2111.4;2025.3;5399.6;
45310;SPS30;68264;51.540;5.854;2023-09-19T00:50:30;0.24;;3.01;2.57;5439.5;;2150.2;2070.0;5437.6;
45310;SPS30;68264;51.540;5.854;2023-09-19T01:06:02;0.01;;2.79;2.41;5176.1;;1888.1;1816.7;5174.4;
45310;SPS30;68264;51.540;5.854;2023-09-19T01:21:32;1.8;;3.71;2.62;5536.2;;2227.5;2032.0;5531.3;
45310;SPS30;68264;51.540;5.854;2023-09-19T01:35:31;0.01;;2.84;2.52;5403.4;;2119.1;2069.0;5402.2;
45310;SPS30;68264;51.540;5.854;2023-09-19T01:49:59;0.01;;2.9;2.62;5510.6;;2227.0;2180.6;5509.5;
45310;SPS30;68264;51.540;5.854;2023-09-19T02:04:19;0.54;;3.12;2.52;5341.2;;2046.8;1937.2;5338.5;
45310;SPS30;68264;51.540;5.854;2023-09-19T02:18:47;0.06;;2.9;2.46;5304.0;;2015.4;1940.0;5302.2;
45310;SPS30;68264;51.540;5.854;2023-09-19T02:33:35;1.08;;3.44;2.73;5716.6;;2419.3;2291.5;5713.4;
45310;SPS30;68264;51.540;5.854;2023-09-19T02:47:54;0.24;;2.9;2.41;5194.7;;1902.9;1808.9;5192.4;
45310;SPS30;68264;51.540;5.854;2023-09-19T03:01:53;0.96;;3.28;2.52;5336.7;;2037.4;1898.4;5333.2;
45310;SPS30;68264;51.540;5.854;2023-09-19T03:15:52;1.38;;3.39;2.46;5301.9;;1996.6;1822.0;5297.4;
45310;SPS30;68264;51.540;5.854;2023-09-19T03:29:51;0.78;;3.17;2.52;5347.0;;2050.0;1925.0;5343.9;
45310;SPS30;68264;51.540;5.854;2023-09-19T03:43:50;0.01;;2.73;2.3;5080.4;;1791.1;1712.3;5078.5;
45310;SPS30;68264;51.540;5.854;2023-09-19T03:57:49;1.08;;3.28;2.46;5292.3;;1990.3;1835.7;5288.4;
45310;SPS30;68264;51.540;5.854;2023-09-19T04:11:48;0.01;;2.68;2.41;5225.4;;1941.4;1894.1;5224.2;
45310;SPS30;68264;51.540;5.854;2023-09-19T04:25:47;0.66;;3.12;2.46;5265.7;;1969.4;1848.4;5262.6;
45310;SPS30;68264;51.540;5.854;2023-09-19T04:39:46;0.18;;2.95;2.52;5404.6;;2115.8;2039.1;5402.7;
45310;SPS30;68264;51.540;5.854;2023-09-19T04:54:15;0.01;;2.62;2.41;5235.2;;1953.1;1916.3;5234.4;
45310;SPS30;68264;51.540;5.854;2023-09-19T05:08:34;0.48;;3.01;2.35;5132.3;;1836.8;1721.0;5129.4;
45310;SPS30;68264;51.540;5.854;2023-09-19T05:23:02;0.24;;3.01;2.57;5472.5;;2183.4;2105.1;5470.6;
45310;SPS30;68264;51.540;5.854;2023-09-19T05:37:21;0.66;;3.17;2.52;5384.0;;2088.6;1972.6;5381.1;
45310;SPS30;68264;51.540;5.854;2023-09-19T05:51:20;0.24;;2.95;2.41;5225.6;;1933.7;1838.9;5223.3;
45310;SPS30;68264;51.540;5.854;2023-09-19T06:05:19;0.78;;3.17;2.46;5267.5;;1969.4;1837.9;5264.2;
45310;SPS30;68264;51.540;5.854;2023-09-19T06:19:18;1.2;;3.39;2.57;5413.1;;2110.7;1953.2;5409.1;
45310;SPS30;68264;51.540;5.854;2023-09-19T06:33:17;1.8;;3.77;2.79;5766.2;;2459.7;2277.0;5761.5;
45310;SPS30;68264;51.540;5.854;2023-09-19T06:47:16;0.24;;2.95;2.41;5217.8;;1926.0;1831.8;5215.5;
45310;SPS30;68264;51.540;5.854;2023-09-19T07:01:16;1.62;;3.61;2.68;5609.6;;2304.5;2129.9;5605.2;
45310;SPS30;68264;51.540;5.854;2023-09-19T07:15:44;0.72;;3.17;2.52;5370.7;;2074.8;1956.1;5367.7;
45310;SPS30;68264;51.540;5.854;2023-09-19T07:30:03;2.28;;3.88;2.62;5547.5;;2232.8;2002.0;5541.6;
45310;SPS30;68264;51.540;5.854;2023-09-19T07:44:02;0.3;;2.95;2.46;5261.7;;1970.0;1876.4;5259.4;
45310;SPS30;68264;51.540;5.854;2023-09-19T07:58:01;1.14;;3.28;2.35;5133.4;;1829.3;1662.2;5129.2;
45310;SPS30;68264;51.540;5.854;2023-09-19T08:12:00;2.04;;3.77;2.62;5536.4;;2224.7;2011.3;5531.0;
45310;SPS30;68264;51.540;5.854;2023-09-19T08:25:59;1.98;;3.82;2.68;5636.8;;2326.8;2123.0;5631.7;
45310;SPS30;68264;51.540;5.854;2023-09-19T08:40:27;1.8;;3.66;2.62;5488.5;;2179.5;1982.4;5483.5;
45310;SPS30;68264;51.540;5.854;2023-09-19T08:54:46;1.32;;3.39;2.52;5349.5;;2045.2;1876.6;5345.2;
45310;SPS30;68264;51.540;5.854;2023-09-19T09:09:14;2.88;;4.21;2.73;5727.4;;2406.8;2140.5;5720.6;
45310;SPS30;68264;51.540;5.854;2023-09-19T09:23:34;0.36;;2.95;2.35;5121.8;;1827.6;1719.2;5119.1;
45310;SPS30;68264;51.540;5.854;2023-09-19T09:37:33;1.98;;3.71;2.57;5468.1;;2156.7;1945.8;5462.7;
45310;SPS30;68264;51.540;5.854;2023-09-19T09:52:33;0.01;;2.52;2.19;4914.8;;1630.2;1579.4;4913.6;
45310;SPS30;68264;51.540;5.854;2023-09-19T10:07:33;0.18;;2.95;2.57;5445.6;;2157.3;2083.7;5443.8;
45310;SPS30;68264;51.540;5.854;2023-09-19T10:21:32;0.9;;3.17;2.41;5190.5;;1890.1;1745.5;5186.8;
45310;SPS30;68264;51.540;5.854;2023-09-19T10:35:31;0.01;;2.57;2.3;5044.8;;1761.1;1715.3;5043.7;
45310;SPS30;68264;51.540;5.854;2023-09-19T10:49:59;0.42;;2.95;2.35;5147.3;;1852.7;1742.1;5144.5;
45310;SPS30;68264;51.540;5.854;2023-09-19T11:04:18;0.66;;3.12;2.46;5263.6;;1967.0;1843.8;5260.5;
45310;SPS30;68264;51.540;5.854;2023-09-19T11:18:46;0.01;;2.52;2.03;4652.7;;1362.0;1275.7;4650.6;
45310;SPS30;68264;51.540;5.854;2023-09-19T11:33:35;0.66;;2.95;2.19;4924.4;;1624.7;1484.4;4920.9;
45310;SPS30;68264;51.540;5.854;2023-09-19T11:48:23;0.01;;2.52;2.03;4654.1;;1363.2;1275.5;4651.9;
45310;SPS30;68264;51.540;5.854;2023-09-19T12:02:42;0.01;;2.35;1.97;4570.5;;1283.0;1216.4;4568.8;
45310;SPS30;68264;51.540;5.854;2023-09-19T12:17:10;0.54;;2.84;2.08;4709.7;;1409.0;1263.4;4706.0;
45310;SPS30;68264;51.540;5.854;2023-09-19T12:31:58;0.01;;1.86;1.75;4264.5;;986.3;976.0;4264.2;
45310;SPS30;68264;51.540;5.854;2023-09-19T12:46:18;0.01;;2.13;1.81;4349.9;;1064.0;1007.2;4348.4;
45310;SPS30;68264;51.540;5.854;2023-09-19T13:14:16;0.01;;2.13;1.75;4259.9;;972.5;907.2;4258.2;
45310;SPS30;68264;51.540;5.854;2023-09-19T13:28:15;0.01;;1.86;1.7;4169.2;;888.4;862.4;4168.6;
45310;SPS30;68264;51.540;5.854;2023-09-19T13:42:14;0.01;;1.75;1.64;4077.0;;797.7;780.8;4076.6;
45310;SPS30;68264;51.540;5.854;2023-09-19T13:56:42;0.01;;1.92;1.64;4084.3;;800.0;753.2;4083.2;
45310;SPS30;68264;51.540;5.854;2023-09-19T14:11:01;0.01;;1.75;1.7;4126.3;;848.2;838.3;4126.1;
45310;SPS30;68264;51.540;5.854;2023-09-19T14:25:00;0.01;;2.35;1.75;4271.6;;977.7;873.3;4268.9;
45310;SPS30;68264;51.540;5.854;2023-09-19T14:40:01;0.01;;1.7;1.64;4058.0;;780.3;773.0;4057.8;
45310;SPS30;68264;51.540;5.854;2023-09-19T15:12:03;0.01;;2.03;1.64;4071.5;;783.8;716.5;4069.8;
45310;SPS30;68264;51.540;5.854;2023-09-19T15:27:36;0.01;;1.75;1.59;4015.6;;733.8;702.4;4014.8;
45310;SPS30;68264;51.540;5.854;2023-09-19T15:43:06;0.01;;1.86;1.64;4086.9;;803.7;763.5;4085.9;
45310;SPS30;68264;51.540;5.854;2023-09-19T15:57:05;0.01;;2.19;1.86;4367.3;;1080.4;1018.2;4365.7;
45310;SPS30;68264;51.540;5.854;2023-09-19T16:11:04;0.01;;1.81;1.75;4273.5;;996.6;993.7;4273.5;
45310;SPS30;68264;51.540;5.854;2023-09-19T16:25:03;0.01;;1.81;1.7;4194.0;;915.9;905.9;4193.8;
45310;SPS30;68264;51.540;5.854;2023-09-19T16:39:31;0.01;;1.97;1.97;4526.0;;1248.5;1241.3;4525.9;
45310;SPS30;68264;51.540;5.854;2023-09-19T17:09:07;0.01;;2.24;2.08;4694.5;;1413.2;1383.2;4693.8;
45310;SPS30;68264;51.540;5.854;2023-09-19T17:23:27;0.01;;2.19;2.08;4756.0;;1478.4;1470.3;4755.9;
45310;SPS30;68264;51.540;5.854;2023-09-19T17:37:26;0.01;;2.46;2.13;4832.9;;1547.8;1494.3;4831.6;
45310;SPS30;68264;51.540;5.854;2023-09-19T17:51:25;0.01;;2.08;2.03;4639.6;;1362.6;1358.6;4639.5;
45310;SPS30;68264;51.540;5.854;2023-09-19T18:05:53;0.01;;2.13;1.92;4491.3;;1209.0;1173.4;4490.4;
45310;SPS30;68264;51.540;5.854;2023-09-19T18:20:12;0.01;;2.3;2.03;4617.8;;1332.6;1279.5;4616.5;
45310;SPS30;68264;51.540;5.854;2023-09-19T18:34:40;0.01;;2.19;2.08;4711.2;;1432.5;1417.8;4710.8;
45310;SPS30;68264;51.540;5.854;2023-09-19T19:03:27;0.01;;1.97;1.92;4484.6;;1207.3;1201.2;4484.5;
45310;SPS30;68264;51.540;5.854;2023-09-19T19:17:47;0.01;;2.68;2.19;4862.7;;1571.2;1479.8;4860.4;
45310;SPS30;68264;51.540;5.854;2023-09-19T19:32:47;0.01;;2.19;2.08;4684.0;;1404.9;1387.4;4683.6;
45310;SPS30;68264;51.540;5.854;2023-09-19T19:47:47;0.01;;2.13;2.08;4767.6;;1490.7;1486.3;4767.6;
45310;SPS30;68264;51.540;5.854;2023-09-19T20:01:46;0.01;;2.46;2.19;4880.8;;1596.9;1550.6;4879.7;
45310;SPS30;68264;51.540;5.854;2023-09-19T20:16:14;0.48;;2.9;2.19;4902.6;;1604.6;1474.6;4899.3;
45310;SPS30;68264;51.540;5.854;2023-09-19T20:30:33;0.01;;2.13;2.08;4718.9;;1441.4;1433.6;4718.8;
45310;SPS30;68264;51.540;5.854;2023-09-19T20:59:32;0.01;;2.52;2.3;5018.6;;1735.9;1696.8;5017.6;
45310;SPS30;68264;51.540;5.854;2023-09-19T21:15:01;0.01;;2.19;2.08;4765.5;;1488.1;1480.8;4765.4;
45310;SPS30;68264;51.540;5.854;2023-09-19T21:29:20;0.01;;2.62;2.41;5187.0;;1903.4;1858.2;5185.9;
45310;SPS30;68264;51.540;5.854;2023-09-19T21:43:19;0.01;;2.52;2.3;5023.7;;1740.7;1699.4;5022.7;
45310;SPS30;68264;51.540;5.854;2023-09-19T21:58:20;0.01;;2.35;2.24;4991.1;;1712.9;1699.9;4990.9;
45310;SPS30;68264;51.540;5.854;2023-09-19T22:15:24;0.01;;2.41;2.3;5051.6;;1772.1;1751.5;5051.1;
45310;SPS30;68264;51.540;5.854;2023-09-19T22:31:25;0.01;;2.41;2.35;5121.1;;1844.2;1838.7;5121.1;
45310;SPS30;68264;51.540;5.854;2023-09-19T22:45:24;0.01;;2.62;2.46;5304.0;;2024.4;2002.7;5303.5;
45310;SPS30;68264;51.540;5.854;2023-09-19T23:00:24;0.01;;2.62;2.52;5405.3;;2127.2;2114.2;5405.0;
45310;SPS30;68264;51.540;5.854;2023-09-19T23:15:23;0.01;;2.68;2.57;5470.4;;2192.8;2182.3;5470.2;
45310;SPS30;68264;51.540;5.854;2023-09-19T23:29:22;0.01;;2.84;2.62;5505.4;;2222.5;2180.6;5504.5;
45310;SPS30;68264;51.540;5.854;2023-09-19T23:43:21;0.01;;2.68;2.62;5496.3;;2219.3;2212.7;5496.2;
45310;SPS30;68264;51.540;5.854;2023-09-19T23:57:20;0.01;;2.68;2.52;5362.3;;2081.5;2052.0;5361.7;
